createdAt,value
2019-05-01T00:01:00.148Z,18.63
2019-05-01T00:03:46.100Z,18.70
2019-05-01T00:06:16.040Z,17.90
2019-05-01T00:08:44.371Z,18.03
2019-05-01T00:11:12.603Z,16.80
2019-05-01T00:13:41.324Z,17.17
2019-05-01T00:16:09.630Z,17.27
2019-05-01T00:18:37.890Z,17.60
2019-05-01T00:21:06.183Z,18.20
2019-05-01T00:23:34.443Z,17.67
2019-05-01T00:26:02.676Z,17.60
2019-05-01T00:28:31.004Z,19.10
2019-05-01T00:30:59.302Z,18.40
2019-05-01T00:33:27.562Z,19.97
2019-05-01T00:35:55.793Z,19.60
2019-05-01T00:38:24.121Z,18.27
2019-05-01T00:40:52.412Z,18.53
2019-05-01T00:43:20.684Z,18.73
2019-05-01T00:45:48.971Z,18.70
2019-05-01T00:48:17.312Z,18.43
2019-05-01T00:50:45.540Z,19.47
2019-05-01T00:53:13.877Z,20.00
2019-05-01T00:55:46.778Z,19.97
2019-05-01T00:58:25.779Z,19.70
2019-05-01T01:00:58.217Z,21.17
2019-05-01T01:03:26.490Z,20.83
2019-05-01T01:05:54.724Z,19.17
2019-05-01T01:08:23.021Z,18.17
2019-05-01T01:10:51.353Z,18.90
2019-05-01T01:13:19.581Z,19.17
2019-05-01T01:15:47.841Z,19.20
2019-05-01T01:18:16.077Z,20.40
2019-05-01T01:20:44.409Z,19.30
2019-05-01T01:23:12.813Z,17.53
2019-05-01T01:25:41.137Z,17.13
2019-05-01T01:28:09.369Z,16.60
2019-05-01T01:30:37.641Z,16.70
2019-05-01T01:33:05.944Z,17.40
2019-05-01T01:35:34.273Z,17.93
2019-05-01T01:38:02.574Z,17.70
2019-05-01T01:40:31.000Z,17.63
2019-05-01T01:43:17.488Z,17.73
2019-05-01T01:45:47.458Z,17.67
2019-05-01T01:48:17.226Z,17.33
2019-05-01T01:50:46.820Z,17.20
2019-05-01T01:53:16.598Z,17.57
2019-05-01T01:55:45.429Z,16.87
2019-05-01T01:58:13.736Z,17.47
2019-05-01T02:00:47.445Z,17.20
2019-05-01T02:03:15.744Z,17.00
2019-05-01T02:05:45.153Z,16.23
2019-05-01T02:08:14.353Z,18.47
2019-05-01T02:10:43.459Z,18.07
2019-05-01T02:13:11.989Z,16.97
2019-05-01T02:15:40.316Z,19.00
2019-05-01T02:18:08.620Z,20.33
2019-05-01T02:20:36.949Z,18.07
2019-05-01T02:23:05.244Z,17.63
2019-05-01T02:25:35.550Z,18.37
2019-05-01T02:28:22.071Z,18.03
2019-05-01T02:31:07.969Z,18.27
2019-05-01T02:33:37.896Z,17.90
2019-05-01T02:36:06.321Z,18.10
2019-05-01T02:38:35.458Z,18.23
2019-05-01T02:41:04.170Z,16.73
2019-05-01T02:43:33.978Z,17.30
2019-05-01T02:46:02.985Z,17.97
2019-05-01T02:48:32.363Z,17.37
2019-05-01T02:51:01.603Z,16.37
2019-05-01T02:53:31.242Z,17.50
2019-05-01T02:56:14.451Z,17.20
2019-05-01T02:58:44.589Z,16.37
2019-05-01T03:01:14.401Z,16.63
2019-05-01T03:03:43.035Z,16.60
2019-05-01T03:06:11.837Z,17.70
2019-05-01T03:08:40.177Z,18.23
2019-05-01T03:11:08.469Z,18.20
2019-05-01T03:13:37.624Z,18.90
2019-05-01T03:16:06.930Z,17.70
2019-05-01T03:18:36.832Z,20.10
2019-05-01T03:21:19.429Z,21.27
2019-05-01T03:23:53.081Z,18.17
2019-05-01T03:26:21.377Z,17.23
2019-05-01T03:28:49.726Z,17.90
2019-05-01T03:31:18.062Z,17.93
2019-05-01T03:33:46.671Z,18.17
2019-05-01T03:36:15.057Z,18.53
2019-05-01T03:38:43.396Z,18.33
2019-05-01T03:41:11.694Z,18.23
2019-05-01T03:43:40.027Z,20.23
2019-05-01T03:46:08.925Z,20.17
2019-05-01T03:48:37.224Z,21.83
2019-05-01T03:51:05.561Z,19.67
2019-05-01T03:53:36.557Z,19.07
2019-05-01T03:56:04.858Z,20.97
2019-05-01T03:58:33.156Z,19.77
2019-05-01T04:01:03.635Z,19.93
2019-05-01T04:03:33.707Z,18.83
2019-05-01T04:06:02.416Z,18.83
2019-05-01T04:08:31.110Z,20.07
2019-05-01T04:10:59.441Z,20.03
2019-05-01T04:13:27.785Z,22.07
2019-05-01T04:15:56.003Z,21.20
2019-05-01T04:18:24.336Z,22.50
2019-05-01T04:20:52.637Z,25.67
2019-05-01T04:23:21.443Z,27.50
2019-05-01T04:25:50.115Z,25.40
2019-05-01T04:28:34.999Z,23.33
2019-05-01T04:31:23.645Z,23.73
2019-05-01T04:33:56.523Z,22.03
2019-05-01T04:36:26.579Z,22.67
2019-05-01T04:38:55.606Z,23.53
2019-05-01T04:41:23.918Z,23.47
2019-05-01T04:43:52.356Z,23.10
2019-05-01T04:46:20.658Z,22.83
2019-05-01T04:48:48.955Z,23.07
2019-05-01T04:51:17.499Z,22.57
2019-05-01T04:53:46.803Z,20.57
2019-05-01T04:56:15.828Z,21.20
2019-05-01T04:58:44.133Z,19.33
2019-05-01T05:01:12.460Z,19.00
2019-05-01T05:03:40.770Z,19.53
2019-05-01T05:06:09.103Z,18.83
2019-05-01T05:08:37.404Z,19.20
2019-05-01T05:11:07.373Z,19.63
2019-05-01T05:13:40.545Z,19.43
2019-05-01T05:16:13.914Z,17.10
2019-05-01T05:18:42.153Z,18.53
2019-05-01T05:21:10.493Z,18.90
2019-05-01T05:23:38.797Z,18.03
2019-05-01T05:26:07.124Z,17.30
2019-05-01T05:28:35.829Z,16.63
2019-05-01T05:31:04.166Z,17.30
2019-05-01T05:33:34.145Z,18.80
2019-05-01T05:36:03.951Z,18.97
2019-05-01T05:38:42.693Z,18.33
2019-05-01T05:41:30.310Z,18.80
2019-05-01T05:43:58.709Z,17.37
2019-05-01T05:46:27.015Z,18.37
2019-05-01T05:48:55.277Z,16.77
2019-05-01T05:51:35.804Z,15.20
2019-05-01T05:54:14.561Z,16.20
2019-05-01T05:56:45.811Z,16.63
2019-05-01T05:59:31.150Z,16.33
2019-05-01T06:02:02.565Z,16.80
2019-05-01T06:04:50.324Z,17.07
2019-05-01T06:07:21.679Z,18.07
2019-05-01T06:09:59.015Z,17.40
2019-05-01T06:12:28.980Z,16.30
2019-05-01T06:15:02.354Z,16.90
2019-05-01T06:17:31.249Z,15.67
2019-05-01T06:20:20.703Z,15.67
2019-05-01T06:23:04.629Z,16.37
2019-05-01T06:25:36.070Z,15.80
2019-05-01T06:28:04.888Z,14.50
2019-05-01T06:30:34.018Z,14.17
2019-05-01T06:33:04.113Z,14.20
2019-05-01T06:35:33.910Z,14.13
2019-05-01T06:38:07.018Z,14.17
2019-05-01T06:40:43.345Z,14.13
2019-05-01T06:43:14.797Z,13.77
2019-05-01T06:45:46.805Z,14.13
2019-05-01T06:48:17.886Z,14.73
2019-05-01T06:50:51.860Z,14.73
2019-05-01T06:53:20.190Z,14.63
2019-05-01T06:55:51.354Z,14.63
2019-05-01T06:58:20.421Z,15.77
2019-05-01T07:00:48.541Z,15.63
2019-05-01T07:03:16.892Z,15.73
2019-05-01T07:05:49.148Z,16.03
2019-05-01T07:08:24.463Z,16.80
2019-05-01T07:10:45.947Z,15.77
2019-05-01T07:13:14.377Z,15.63
2019-05-01T07:15:42.731Z,16.77
2019-05-01T07:18:11.582Z,17.13
2019-05-01T07:20:41.665Z,18.37
2019-05-01T07:23:12.713Z,18.60
2019-05-01T07:25:40.671Z,19.90
2019-05-01T07:28:09.154Z,21.30
2019-05-01T07:30:41.360Z,21.17
2019-05-01T07:33:11.983Z,20.33
2019-05-01T07:35:39.122Z,21.93
2019-05-01T07:38:07.464Z,22.30
2019-05-01T07:40:36.177Z,22.70
2019-05-01T07:43:09.093Z,21.57
2019-05-01T07:45:43.181Z,22.50
2019-05-01T07:48:09.034Z,21.47
2019-05-01T07:50:37.846Z,22.17
2019-05-01T07:53:06.178Z,23.03
2019-05-01T07:55:37.515Z,23.10
2019-05-01T07:58:10.474Z,22.17
2019-05-01T08:00:41.478Z,22.73
2019-05-01T08:03:09.483Z,21.30
2019-05-01T08:05:40.808Z,22.70
2019-05-01T08:08:08.189Z,23.00
2019-05-01T08:10:37.685Z,21.70
2019-05-01T08:13:05.989Z,22.33
2019-05-01T08:15:34.260Z,22.13
2019-05-01T08:18:13.243Z,22.53
2019-05-01T08:20:57.841Z,21.77
2019-05-01T08:23:26.265Z,22.20
2019-05-01T08:25:54.569Z,22.50
2019-05-01T08:28:27.669Z,21.60
2019-05-01T08:30:56.181Z,20.93
2019-05-01T08:33:44.787Z,21.50
2019-05-01T08:36:13.488Z,21.77
2019-05-01T08:38:42.071Z,19.83
2019-05-01T08:41:10.296Z,20.67
2019-05-01T08:43:38.990Z,20.57
2019-05-01T08:46:11.829Z,19.23
2019-05-01T08:48:43.067Z,19.93
2019-05-01T08:51:11.378Z,19.23
2019-05-01T08:53:39.715Z,18.97
2019-05-01T08:56:09.762Z,18.53
2019-05-01T08:58:38.129Z,19.63
2019-05-01T09:01:10.835Z,19.53
2019-05-01T09:03:36.914Z,19.30
2019-05-01T09:06:05.264Z,18.73
2019-05-01T09:08:33.643Z,19.20
2019-05-01T09:11:02.272Z,18.60
2019-05-01T09:13:31.079Z,18.23
2019-05-01T09:15:59.618Z,17.83
2019-05-01T09:18:27.872Z,17.83
2019-05-01T09:20:58.236Z,19.60
2019-05-01T09:23:27.863Z,19.80
2019-05-01T09:26:15.904Z,17.47
2019-05-01T09:28:45.894Z,16.90
2019-05-01T09:31:17.469Z,16.80
2019-05-01T09:33:45.844Z,16.57
2019-05-01T09:36:14.359Z,16.03
2019-05-01T09:38:42.775Z,17.17
2019-05-01T09:41:11.562Z,16.80
2019-05-01T09:43:39.906Z,16.93
2019-05-01T09:46:08.217Z,16.17
2019-05-01T09:48:37.093Z,15.70
2019-05-01T09:51:20.626Z,15.43
2019-05-01T09:53:51.023Z,15.93
2019-05-01T09:56:23.954Z,16.70
2019-05-01T09:58:52.240Z,15.80
2019-05-01T10:01:24.133Z,14.97
2019-05-01T10:03:54.683Z,15.57
2019-05-01T10:06:20.597Z,13.20
2019-05-01T10:08:48.905Z,13.13
2019-05-01T10:11:17.258Z,13.77
2019-05-01T10:13:45.575Z,14.30
2019-05-01T10:16:13.918Z,13.53
2019-05-01T10:18:42.230Z,14.37
2019-05-01T10:21:10.469Z,12.37
2019-05-01T10:23:38.881Z,13.37
2019-05-01T10:26:08.811Z,12.07
2019-05-01T10:28:57.043Z,14.43
2019-05-01T10:31:26.913Z,14.00
2019-05-01T10:34:11.902Z,13.80
2019-05-01T10:36:41.900Z,14.97
2019-05-01T10:39:10.749Z,12.57
2019-05-01T10:41:41.070Z,13.20
2019-05-01T10:44:09.197Z,13.97
2019-05-01T10:46:37.604Z,12.70
2019-05-01T10:49:08.970Z,11.83
2019-05-01T10:51:37.724Z,11.63
2019-05-01T10:54:06.222Z,12.63
2019-05-01T10:56:34.675Z,11.53
2019-05-01T10:59:03.119Z,12.23
2019-05-01T11:01:35.019Z,12.80
2019-05-01T11:04:03.949Z,11.40
2019-05-01T11:06:32.275Z,12.50
2019-05-01T11:09:00.627Z,12.20
2019-05-01T11:11:28.945Z,11.60
2019-05-01T11:13:57.412Z,11.30
2019-05-01T11:16:25.780Z,10.83
2019-05-01T11:18:54.120Z,10.67
2019-05-01T11:21:22.552Z,10.23
2019-05-01T11:23:50.894Z,10.57
2019-05-01T11:26:20.215Z,10.33
2019-05-01T11:28:48.744Z,10.90
2019-05-01T11:31:20.735Z,11.67
2019-05-01T11:33:59.880Z,11.13
2019-05-01T11:36:45.265Z,11.60
2019-05-01T11:39:18.220Z,11.27
2019-05-01T11:41:51.286Z,11.27
2019-05-01T11:44:19.726Z,11.13
2019-05-01T11:46:48.230Z,11.20
2019-05-01T11:49:16.595Z,13.47
2019-05-01T11:51:44.904Z,14.07
2019-05-01T11:54:13.256Z,15.53
2019-05-01T11:56:41.848Z,15.27
2019-05-01T11:59:10.327Z,14.27
2019-05-01T12:01:38.820Z,14.60
2019-05-01T12:04:09.011Z,13.67
2019-05-01T12:06:37.633Z,14.17
2019-05-01T12:09:06.887Z,18.30
2019-05-01T12:11:37.287Z,15.13
2019-05-01T12:14:05.679Z,13.50
2019-05-01T12:16:53.700Z,13.53
2019-05-01T12:19:23.987Z,13.83
2019-05-01T12:21:52.456Z,13.13
2019-05-01T12:24:20.742Z,13.43
2019-05-01T12:26:49.086Z,12.93
2019-05-01T12:29:17.332Z,14.17
2019-05-01T12:31:45.674Z,12.87
2019-05-01T12:34:14.020Z,13.00
2019-05-01T12:36:43.232Z,13.33
2019-05-01T12:39:13.185Z,11.90
2019-05-01T12:41:46.191Z,13.47
2019-05-01T12:44:14.682Z,14.30
2019-05-01T12:46:50.643Z,13.00
2019-05-01T12:49:18.942Z,13.23
2019-05-01T12:51:48.931Z,13.47
2019-05-01T12:54:18.835Z,12.50
2019-05-01T12:56:57.555Z,12.23
2019-05-01T12:59:25.862Z,12.13
2019-05-01T13:01:54.138Z,12.33
2019-05-01T13:04:22.450Z,11.73
2019-05-01T13:06:53.263Z,11.87
2019-05-01T13:09:21.502Z,11.97
2019-05-01T13:11:49.838Z,12.03
2019-05-01T13:14:18.062Z,11.40
2019-05-01T13:16:46.334Z,11.77
2019-05-01T13:19:14.565Z,10.70
2019-05-01T13:21:42.911Z,10.57
2019-05-01T13:24:11.213Z,10.43
2019-05-01T13:26:49.918Z,10.10
2019-05-01T13:29:22.669Z,11.07
2019-05-01T13:31:55.067Z,10.27
2019-05-01T13:34:23.310Z,10.30
2019-05-01T13:37:02.341Z,9.67
2019-05-01T13:39:21.547Z,10.27
2019-05-01T13:41:49.881Z,9.93
2019-05-01T13:44:18.118Z,10.57
2019-05-01T13:46:46.849Z,9.93
2019-05-01T13:49:15.155Z,10.27
2019-05-01T13:51:43.442Z,10.87
2019-05-01T13:54:11.739Z,9.90
2019-05-01T13:56:40.074Z,9.97
2019-05-01T13:59:09.977Z,10.30
2019-05-01T14:01:38.260Z,10.30
2019-05-01T14:04:06.837Z,10.30
2019-05-01T14:06:35.180Z,9.93
2019-05-01T14:09:05.138Z,9.40
2019-05-01T14:11:33.403Z,9.63
2019-05-01T14:14:01.705Z,9.50
2019-05-01T14:16:29.974Z,9.50
2019-05-01T14:18:58.205Z,9.90
2019-05-01T14:21:30.682Z,9.77
2019-05-01T14:24:03.510Z,9.67
2019-05-01T14:26:33.250Z,10.70
2019-05-01T14:29:01.491Z,9.43
2019-05-01T14:31:29.794Z,8.90
2019-05-01T14:33:58.067Z,10.77
2019-05-01T14:36:26.442Z,10.27
2019-05-01T14:38:54.778Z,9.83
2019-05-01T14:41:23.010Z,10.20
2019-05-01T14:43:51.350Z,9.87
2019-05-01T14:46:19.657Z,10.07
2019-05-01T14:48:47.999Z,10.30
2019-05-01T14:51:16.315Z,10.07
2019-05-01T14:53:44.581Z,9.50
2019-05-01T14:56:12.880Z,9.90
2019-05-01T14:58:41.219Z,9.77
2019-05-01T15:01:09.530Z,10.00
2019-05-01T15:03:37.871Z,10.23
2019-05-01T15:06:06.165Z,9.37
2019-05-01T15:08:34.656Z,9.30
2019-05-01T15:11:03.089Z,8.70
2019-05-01T15:13:33.195Z,8.63
2019-05-01T15:16:14.943Z,9.33
2019-05-01T15:18:47.827Z,8.93
2019-05-01T15:21:16.194Z,8.70
2019-05-01T15:23:53.296Z,8.63
2019-05-01T15:26:14.535Z,8.83
2019-05-01T15:28:42.872Z,9.60
2019-05-01T15:31:11.188Z,10.27
2019-05-01T15:33:39.667Z,9.13
2019-05-01T15:36:08.110Z,9.17
2019-05-01T15:38:36.586Z,9.07
2019-05-01T15:41:06.545Z,8.27
2019-05-01T15:43:36.596Z,8.63
2019-05-01T15:46:04.922Z,8.53
2019-05-01T15:48:33.250Z,8.30
2019-05-01T15:51:01.557Z,8.63
2019-05-01T15:53:30.071Z,8.90
2019-05-01T15:55:58.371Z,8.80
2019-05-01T15:58:26.861Z,8.40
2019-05-01T16:00:55.308Z,7.57
2019-05-01T16:03:23.705Z,8.77
2019-05-01T16:05:52.012Z,8.30
2019-05-01T16:08:20.337Z,8.17
2019-05-01T16:10:53.026Z,8.10
2019-05-01T16:13:21.323Z,8.40
2019-05-01T16:15:49.826Z,8.57
2019-05-01T16:18:18.211Z,8.73
2019-05-01T16:20:46.517Z,7.80
2019-05-01T16:23:14.734Z,8.00
2019-05-01T16:25:43.123Z,8.87
2019-05-01T16:28:11.548Z,7.87
2019-05-01T16:30:40.029Z,8.63
2019-05-01T16:33:08.335Z,8.63
2019-05-01T16:35:36.671Z,8.40
2019-05-01T16:38:06.619Z,8.53
2019-05-01T16:40:48.332Z,8.30
2019-05-01T16:43:16.613Z,8.07
2019-05-01T16:45:44.951Z,8.13
2019-05-01T16:48:13.254Z,8.43
2019-05-01T16:50:41.605Z,9.87
2019-05-01T16:53:10.058Z,10.13
2019-05-01T16:55:38.610Z,10.60
2019-05-01T16:58:08.541Z,11.37
2019-05-01T17:00:50.585Z,9.00
2019-05-01T17:03:20.626Z,10.40
2019-05-01T17:05:59.882Z,9.60
2019-05-01T17:08:46.050Z,10.90
2019-05-01T17:11:14.571Z,11.27
2019-05-01T17:13:43.020Z,10.60
2019-05-01T17:16:11.411Z,10.83
2019-05-01T17:18:39.880Z,10.50
2019-05-01T17:21:08.605Z,10.93
2019-05-01T17:23:36.853Z,11.07
2019-05-01T17:26:05.190Z,10.40
2019-05-01T17:28:33.420Z,10.57
2019-05-01T17:31:01.765Z,10.80
2019-05-01T17:33:30.065Z,11.03
2019-05-01T17:35:58.400Z,10.80
2019-05-01T17:38:26.702Z,9.90
2019-05-01T17:40:55.042Z,10.67
2019-05-01T17:43:23.265Z,12.40
2019-05-01T17:45:51.604Z,12.17
2019-05-01T17:48:19.985Z,10.97
2019-05-01T17:50:48.326Z,12.50
2019-05-01T17:53:16.641Z,10.50
2019-05-01T17:55:44.942Z,11.50
2019-05-01T17:58:13.682Z,11.50
2019-05-01T18:01:01.769Z,11.07
2019-05-01T18:03:31.722Z,12.27
2019-05-01T18:06:10.451Z,11.30
2019-05-01T18:08:38.759Z,11.73
2019-05-01T18:11:09.294Z,11.80
2019-05-01T18:13:36.965Z,11.37
2019-05-01T18:16:05.194Z,11.33
2019-05-01T18:18:33.525Z,11.77
2019-05-01T18:21:01.905Z,12.20
2019-05-01T18:23:49.526Z,12.10
2019-05-01T18:26:38.708Z,12.50
2019-05-01T18:29:23.887Z,12.37
2019-05-01T18:31:52.393Z,12.03
2019-05-01T18:34:20.625Z,12.03
2019-05-01T18:37:08.846Z,13.20
2019-05-01T18:39:41.929Z,13.23
2019-05-01T18:42:11.911Z,12.83
2019-05-01T18:44:42.573Z,12.97
2019-05-01T18:47:10.278Z,12.60
2019-05-01T18:49:38.665Z,12.53
2019-05-01T18:52:07.522Z,13.40
2019-05-01T18:54:36.414Z,12.27
2019-05-01T18:57:05.513Z,13.93
2019-05-01T18:59:34.496Z,14.00
2019-05-01T19:02:02.809Z,12.20
2019-05-01T19:04:31.225Z,12.67
2019-05-01T19:06:59.513Z,13.70
2019-05-01T19:09:30.122Z,13.37
2019-05-01T19:11:58.204Z,14.73
2019-05-01T19:14:28.891Z,14.57
2019-05-01T19:16:56.604Z,13.40
2019-05-01T19:19:24.939Z,14.87
2019-05-01T19:21:53.173Z,15.17
2019-05-01T19:24:21.584Z,15.97
2019-05-01T19:26:49.953Z,16.27
2019-05-01T19:29:18.259Z,15.63
2019-05-01T19:31:46.660Z,16.13
2019-05-01T19:34:14.853Z,16.57
2019-05-01T19:36:45.200Z,16.40
2019-05-01T19:39:14.537Z,15.93
2019-05-01T19:41:43.742Z,16.47
2019-05-01T19:44:13.998Z,15.13
2019-05-01T19:46:43.027Z,16.47
2019-05-01T19:49:11.458Z,16.03
2019-05-01T19:51:40.093Z,14.43
2019-05-01T19:54:08.732Z,17.00
2019-05-01T19:56:37.513Z,17.00
2019-05-01T19:59:06.091Z,16.40
2019-05-01T20:01:38.292Z,16.23
2019-05-01T20:04:08.333Z,17.40
2019-05-01T20:06:38.610Z,16.40
2019-05-01T20:09:06.110Z,16.80
2019-05-01T20:11:34.421Z,17.37
2019-05-01T20:14:05.870Z,18.10
2019-05-01T20:16:32.798Z,16.87
2019-05-01T20:19:01.226Z,18.87
2019-05-01T20:21:29.717Z,18.37
2019-05-01T20:23:57.970Z,19.33
2019-05-01T20:26:26.948Z,18.83
2019-05-01T20:28:57.489Z,17.90
2019-05-01T20:31:28.265Z,18.57
2019-05-01T20:33:56.156Z,19.53
2019-05-01T20:36:25.668Z,18.03
2019-05-01T20:38:53.905Z,18.07
2019-05-01T20:41:24.383Z,18.00
2019-05-01T20:43:53.284Z,18.73
2019-05-01T20:46:26.126Z,18.93
2019-05-01T20:48:56.038Z,19.33
2019-05-01T20:51:22.914Z,19.13
2019-05-01T20:53:51.283Z,19.87
2019-05-01T20:56:29.966Z,18.57
2019-05-01T20:59:03.320Z,20.63
2019-05-01T21:01:29.683Z,19.37
2019-05-01T21:04:17.930Z,20.20
2019-05-01T21:06:54.067Z,18.83
2019-05-01T21:09:24.110Z,19.83
2019-05-01T21:12:04.736Z,20.50
2019-05-01T21:14:24.067Z,20.37
2019-05-01T21:16:52.499Z,19.57
2019-05-01T21:19:21.000Z,20.00
2019-05-01T21:21:49.426Z,19.83
2019-05-01T21:24:17.832Z,20.57
2019-05-01T21:26:46.037Z,21.50
2019-05-01T21:29:14.338Z,24.00
2019-05-01T21:31:44.093Z,22.40
2019-05-01T21:34:14.556Z,23.10
2019-05-01T21:36:42.379Z,22.27
2019-05-01T21:39:12.471Z,21.57
2019-05-01T21:41:40.652Z,23.07
2019-05-01T21:44:08.917Z,20.73
2019-05-01T21:46:39.173Z,21.60
2019-05-01T21:49:07.210Z,20.93
2019-05-01T21:51:37.118Z,21.87
2019-05-01T21:54:05.384Z,21.17
2019-05-01T21:56:36.974Z,21.57
2019-05-01T21:59:06.700Z,21.23
2019-05-01T22:01:34.896Z,21.67
2019-05-01T22:04:03.794Z,22.87
2019-05-01T22:06:32.118Z,21.60
2019-05-01T22:09:00.414Z,21.60
2019-05-01T22:11:28.766Z,21.67
2019-05-01T22:14:00.105Z,22.13
2019-05-01T22:16:30.093Z,22.33
2019-05-01T22:18:59.971Z,21.73
2019-05-01T22:21:46.612Z,23.63
2019-05-01T22:24:25.714Z,22.27
2019-05-01T22:27:07.348Z,22.27
2019-05-01T22:29:37.360Z,21.93
2019-05-01T22:32:22.597Z,23.77
2019-05-01T22:34:55.244Z,21.20
2019-05-01T22:37:23.649Z,22.10
2019-05-01T22:39:53.516Z,22.37
2019-05-01T22:42:21.885Z,22.37
2019-05-01T22:44:50.085Z,21.43
2019-05-01T22:47:18.432Z,22.57
2019-05-01T22:49:46.733Z,23.27
2019-05-01T22:52:14.994Z,23.13
2019-05-01T22:54:44.812Z,23.10
2019-05-01T22:57:13.596Z,22.97
2019-05-01T22:59:41.961Z,23.47
2019-05-01T23:02:11.938Z,26.83
2019-05-01T23:04:40.233Z,23.00
2019-05-01T23:07:11.678Z,24.70
2019-05-01T23:09:38.444Z,24.10
2019-05-01T23:12:06.688Z,26.03
2019-05-01T23:14:35.024Z,26.13
2019-05-01T23:17:10.664Z,25.63
2019-05-01T23:19:39.006Z,25.30
2019-05-01T23:22:07.304Z,25.97
2019-05-01T23:24:35.565Z,24.23
2019-05-01T23:27:03.873Z,25.23
2019-05-01T23:29:32.203Z,24.23
2019-05-01T23:32:00.442Z,27.33
2019-05-01T23:34:28.778Z,28.50
2019-05-01T23:36:57.004Z,27.17
2019-05-01T23:39:25.279Z,28.43
2019-05-01T23:41:53.518Z,25.90
2019-05-01T23:44:21.846Z,23.47
2019-05-01T23:46:50.077Z,28.27
2019-05-01T23:49:18.336Z,28.27
2019-05-01T23:51:46.641Z,27.77
2019-05-01T23:54:14.960Z,26.37
2019-05-01T23:56:43.260Z,24.27
2019-05-01T23:59:11.489Z,26.67
